Current Weather

Chicago O'Hare International

Chicago, Illinois (KORD)

Report from: Sunday, February 5, 2023 10:51 PM CST
Current time: Monday, February 6, 2023 12:01 AM CST

Nearby weather
Weather history
Weather forecast

Temperature-1.7°C (28.9°F)
Wind chill-3.8°C (25.2°F)
Dew point-6.1°C (21.0°F)
Winds 3 kts (1.5 m/s, 3.5 mph) North (10°)
Visibility10 mi. (16.1 km)
Clouds Sky clear
Altimeter30.13 in.Hg (1020 mB)
Relative humidity72 %
Density altitude-2,228 ft. (-679 m)
Sea-level pressure102.1 kPa (1021 mB, 30.15 in.Hg)
Remarks System requires maintenance
Automated weather observing station with precipitation discriminator
Flight conditions Visual Meteorological Conditions
Raw dataKORD 060451Z 01003KT 10SM CLR M02/M06 A3013 RMK AO2 SLP210 T10171061 $
An error has occurred. This application may no longer respond until reloaded. Reload 🗙